Time;durP1;ratioP1;P1;durP2;ratioP2;P2;SDS_P1;SDS_P2;PMS_P1;PMS_P2;Temp;Humidity;BMP_temperature;BMP_pressure;BME280_temperature;BME280_humidity;BME280_pressure;Samples;Min_cycle;Max_cycle;Signal;HPM_P1;HPM_P2
2020/12/20 00:01:18;;;;;;;6.38;5.78;;;8.10;99.90;;;;;;5030190;28;20272;-81
2020/12/20 00:03:46;;;;;;;8.00;7.20;;;8.00;99.90;;;;;;5025922;28;20252;-80
2020/12/20 00:06:13;;;;;;;8.73;7.43;;;8.00;99.90;;;;;;5025641;28;20220;-80
2020/12/20 00:08:39;;;;;;;10.50;7.53;;;8.00;99.90;;;;;;5025510;28;20258;-79
2020/12/20 00:11:05;;;;;;;7.30;6.60;;;8.00;99.90;;;;;;5025863;28;20643;-78
2020/12/20 00:13:33;;;;;;;7.90;7.07;;;8.00;99.90;;;;;;5006870;28;20196;-78
2020/12/20 00:15:59;;;;;;;9.70;8.70;;;8.00;99.90;;;;;;5009589;28;20486;-78
2020/12/20 00:18:26;;;;;;;8.25;7.28;;;8.00;99.90;;;;;;5001289;28;20651;-79
2020/12/20 00:20:52;;;;;;;8.45;6.93;;;8.00;99.90;;;;;;5004231;28;20225;-78
2020/12/20 00:23:18;;;;;;;7.23;6.53;;;8.00;99.90;;;;;;5003786;28;20228;-78
2020/12/20 00:25:45;;;;;;;6.68;6.07;;;8.00;99.90;;;;;;5001483;28;20206;-78
2020/12/20 00:28:11;;;;;;;7.80;7.10;;;8.00;99.90;;;;;;5010925;28;20248;-78
2020/12/20 00:30:39;;;;;;;8.23;6.73;;;8.00;99.90;;;;;;5000620;28;20299;-77
2020/12/20 00:33:05;;;;;;;6.90;6.20;;;8.00;99.90;;;;;;5002566;28;20670;-78
2020/12/20 00:35:32;;;;;;;11.45;6.25;;;8.00;99.90;;;;;;5003702;28;20189;-78
2020/12/20 00:37:58;;;;;;;8.25;6.85;;;8.20;99.90;;;;;;5017985;28;20197;-79
2020/12/20 00:40:26;;;;;;;6.97;6.28;;;8.00;99.90;;;;;;5004491;28;20287;-78
2020/12/20 00:42:52;;;;;;;5.95;5.35;;;8.00;99.90;;;;;;5002405;28;20224;-78
2020/12/20 00:45:19;;;;;;;6.60;6.00;;;8.00;99.90;;;;;;5005242;28;20194;-78
2020/12/20 00:47:47;;;;;;;9.23;7.40;;;8.00;99.90;;;;;;5002853;28;20212;-78
2020/12/20 00:50:14;;;;;;;8.23;7.30;;;7.90;99.90;;;;;;5000631;28;20248;-78
2020/12/20 00:52:40;;;;;;;7.77;7.07;;;7.90;99.90;;;;;;5007387;28;20596;-78
2020/12/20 00:55:10;;;;;;;7.33;6.63;;;7.90;99.90;;;;;;4987707;28;20571;-78
2020/12/20 00:57:36;;;;;;;9.73;6.97;;;7.80;99.90;;;;;;5019627;28;20190;-78
2020/12/20 01:00:05;;;;;;;8.00;6.87;;;7.70;99.90;;;;;;5023609;28;20198;-80
2020/12/20 01:02:32;;;;;;;7.63;6.43;;;7.70;99.90;;;;;;5009117;28;20221;-78
2020/12/20 01:04:59;;;;;;;7.97;7.00;;;7.70;99.90;;;;;;5007027;28;20217;-78
2020/12/20 01:07:26;;;;;;;7.32;6.40;;;7.70;99.90;;;;;;4999047;28;20567;-78
2020/12/20 01:09:55;;;;;;;7.90;7.10;;;7.70;99.90;;;;;;4981888;28;20599;-78
2020/12/20 01:12:24;;;;;;;7.30;6.60;;;7.80;99.90;;;;;;4986322;28;20333;-78
2020/12/20 01:15:11;;;;;;;7.40;6.70;;;7.80;99.90;;;;;;5014375;28;20200;-79
2020/12/20 01:17:42;;;;;;;8.47;7.67;;;7.80;99.90;;;;;;5017984;28;20200;-78
2020/12/20 01:20:13;;;;;;;7.80;7.05;;;7.80;99.90;;;;;;4985476;28;20205;-78
2020/12/20 01:22:40;;;;;;;7.88;6.80;;;7.90;99.90;;;;;;4999945;28;20243;-78
2020/12/20 01:25:07;;;;;;;7.93;6.47;;;7.90;99.90;;;;;;5015850;28;20542;-78
2020/12/20 01:27:34;;;;;;;10.13;8.23;;;8.00;99.90;;;;;;4998284;28;20235;-80
2020/12/20 01:30:00;;;;;;;7.27;6.67;;;8.00;99.90;;;;;;5001972;28;20246;-78
2020/12/20 01:32:27;;;;;;;7.17;6.57;;;8.10;99.90;;;;;;5015694;28;20247;-78
2020/12/20 01:35:03;;;;;;;8.93;7.28;;;7.90;99.90;;;;;;5001827;28;20287;-78
2020/12/20 01:37:32;;;;;;;7.73;7.03;;;7.90;99.90;;;;;;4999313;28;20196;-78
2020/12/20 01:40:00;;;;;;;8.38;7.57;;;7.80;99.90;;;;;;4998978;28;20200;-78
2020/12/20 01:42:26;;;;;;;8.50;7.50;;;7.80;99.90;;;;;;5017462;28;20222;-78
2020/12/20 01:44:53;;;;;;;8.27;7.47;;;7.90;99.90;;;;;;5015110;28;20222;-78
2020/12/20 01:47:26;;;;;;;9.48;7.32;;;7.90;99.90;;;;;;4998715;28;20208;-77
2020/12/20 01:49:54;;;;;;;7.30;6.63;;;8.00;99.90;;;;;;5003646;28;20742;-78
2020/12/20 01:52:20;;;;;;;7.87;7.17;;;7.90;99.90;;;;;;4995296;28;20220;-78
2020/12/20 01:54:51;;;;;;;7.90;7.10;;;8.00;99.90;;;;;;5002909;28;20697;-78
2020/12/20 01:57:24;;;;;;;8.83;7.93;;;7.90;99.90;;;;;;5002592;28;20194;-78
2020/12/20 02:00:17;;;;;;;7.83;7.00;;;7.90;99.90;;;;;;4999422;28;20232;-77
2020/12/20 02:02:58;;;;;;;7.03;6.43;;;7.80;99.90;;;;;;5019020;28;20557;-78
2020/12/20 02:05:25;;;;;;;7.40;6.70;;;7.80;99.90;;;;;;5001447;28;20267;-78
2020/12/20 02:07:52;;;;;;;7.60;6.85;;;7.90;99.90;;;;;;5001574;28;20220;-78
2020/12/20 02:10:22;;;;;;;7.95;7.25;;;7.90;99.90;;;;;;5009138;28;20585;-79
2020/12/20 02:12:49;;;;;;;8.77;7.33;;;7.90;99.90;;;;;;5013885;28;20193;-79
2020/12/20 02:15:22;;;;;;;7.50;6.80;;;7.80;99.90;;;;;;5006279;28;20204;-78
2020/12/20 02:17:52;;;;;;;8.33;7.30;;;7.80;99.90;;;;;;5013247;28;20259;-79
2020/12/20 02:20:22;;;;;;;8.85;7.85;;;7.80;99.90;;;;;;4982054;28;20662;-78
2020/12/20 02:23:00;;;;;;;8.27;7.17;;;7.70;99.90;;;;;;5017351;28;20223;-78
2020/12/20 02:25:33;;;;;;;8.57;7.35;;;7.70;99.90;;;;;;5008522;28;20200;-78
2020/12/20 02:28:22;;;;;;;8.25;7.43;;;7.70;99.90;;;;;;5000332;28;20193;-78
2020/12/20 02:30:56;;;;;;;9.00;8.10;;;7.60;99.90;;;;;;5001025;28;20243;-78
2020/12/20 02:33:29;;;;;;;8.50;7.53;;;7.60;99.90;;;;;;5000444;28;20216;-78
2020/12/20 02:35:56;;;;;;;8.47;7.67;;;7.60;99.90;;;;;;5000972;28;20205;-79
2020/12/20 02:38:23;;;;;;;8.20;7.37;;;7.60;99.90;;;;;;4998009;28;20614;-78
2020/12/20 02:41:09;;;;;;;9.57;8.00;;;7.50;99.90;;;;;;5019147;28;20216;-77
2020/12/20 02:43:35;;;;;;;9.60;8.70;;;7.40;99.90;;;;;;5022177;28;20216;-78
2020/12/20 02:46:04;;;;;;;9.23;8.43;;;7.40;99.90;;;;;;5003340;28;20275;-77
2020/12/20 02:48:31;;;;;;;9.83;8.37;;;7.50;99.90;;;;;;5006040;28;20193;-78
2020/12/20 02:50:57;;;;;;;8.77;7.90;;;7.50;99.90;;;;;;5000134;28;20221;-78
2020/12/20 02:53:25;;;;;;;12.18;8.10;;;7.40;99.90;;;;;;4982307;28;20601;-80
2020/12/20 02:55:52;;;;;;;9.53;7.17;;;7.40;99.90;;;;;;5001728;28;20204;-80
2020/12/20 02:58:18;;;;;;;8.13;7.43;;;7.60;99.90;;;;;;4999982;28;20201;-81
2020/12/20 03:01:17;;;;;;;8.40;7.60;;;7.60;99.90;;;;;;4966805;28;20274;-80
2020/12/20 03:03:43;;;;;;;9.90;8.90;;;7.60;99.90;;;;;;5011255;28;20248;-79
2020/12/20 03:06:10;;;;;;;8.50;7.60;;;7.60;99.90;;;;;;4990982;28;20252;-80
2020/12/20 03:08:38;;;;;;;8.45;7.65;;;7.60;99.90;;;;;;5010749;28;20231;-80
2020/12/20 03:11:06;;;;;;;9.65;8.75;;;7.70;99.90;;;;;;5038203;28;20220;-81
2020/12/20 03:13:34;;;;;;;8.75;7.95;;;7.70;99.90;;;;;;5033815;28;20181;-81
2020/12/20 03:16:01;;;;;;;9.10;8.20;;;7.70;99.90;;;;;;5034671;28;20208;-82
2020/12/20 03:18:34;;;;;;;8.70;7.90;;;7.60;99.90;;;;;;5010962;28;20185;-81
2020/12/20 03:21:03;;;;;;;10.53;8.87;;;7.70;99.90;;;;;;5029962;28;20227;-83
2020/12/20 03:23:40;;;;;;;8.97;8.10;;;7.70;99.90;;;;;;5025477;28;20201;-82
2020/12/20 03:26:22;;;;;;;8.00;7.20;;;7.70;99.90;;;;;;5007533;28;20198;-80
2020/12/20 03:29:12;;;;;;;8.47;7.60;;;7.70;99.90;;;;;;5007138;28;20212;-80
2020/12/20 03:31:58;;;;;;;9.38;8.38;;;7.70;99.90;;;;;;5005722;28;20307;-79
2020/12/20 03:34:32;;;;;;;9.35;8.55;;;7.70;99.90;;;;;;5032089;28;20193;-80
2020/12/20 03:37:14;;;;;;;8.00;7.30;;;7.70;99.90;;;;;;5030993;28;20215;-80
2020/12/20 03:39:53;;;;;;;9.40;8.48;;;7.70;99.90;;;;;;5014642;28;20196;-79
2020/12/20 03:42:20;;;;;;;8.25;7.40;;;7.60;99.90;;;;;;5015933;28;20236;-80
2020/12/20 03:44:47;;;;;;;10.07;9.18;;;7.60;99.90;;;;;;5019900;28;20197;-82
2020/12/20 03:47:13;;;;;;;11.20;8.57;;;7.70;99.90;;;;;;5036952;28;20224;-83
2020/12/20 03:49:42;;;;;;;10.32;9.23;;;7.70;99.90;;;;;;5045659;28;20272;-79
2020/12/20 03:52:09;;;;;;;10.13;9.10;;;7.60;99.90;;;;;;5015437;28;20217;-79
2020/12/20 03:54:56;;;;;;;10.27;9.18;;;7.60;99.90;;;;;;4999170;28;20212;-79
2020/12/20 03:57:24;;;;;;;9.48;8.63;;;7.70;99.90;;;;;;5013948;28;20211;-79
2020/12/20 03:59:50;;;;;;;11.13;8.30;;;7.70;99.90;;;;;;5030644;28;20623;-81
2020/12/20 04:02:20;;;;;;;10.27;9.27;;;7.70;99.90;;;;;;5029550;28;20209;-81
2020/12/20 04:04:46;;;;;;;9.63;8.73;;;7.80;99.90;;;;;;5029882;28;20233;-80
2020/12/20 04:07:14;;;;;;;10.20;8.97;;;7.70;99.90;;;;;;5012813;28;20677;-79
2020/12/20 04:09:45;;;;;;;9.57;8.60;;;7.70;99.90;;;;;;5013447;28;20284;-79
2020/12/20 04:12:21;;;;;;;9.10;8.23;;;7.70;99.90;;;;;;5014981;28;20738;-80
2020/12/20 04:14:48;;;;;;;10.37;9.37;;;7.80;99.90;;;;;;5018395;28;20200;-79
2020/12/20 04:17:15;;;;;;;9.40;8.60;;;7.80;99.90;;;;;;5042204;28;20200;-80
2020/12/20 04:19:41;;;;;;;10.82;8.88;;;7.70;99.90;;;;;;5016527;28;20201;-80
2020/12/20 04:22:22;;;;;;;9.63;8.73;;;7.80;99.90;;;;;;5014023;28;20221;-80
2020/12/20 04:25:07;;;;;;;10.50;8.83;;;7.70;99.90;;;;;;5013330;28;20248;-80
2020/12/20 04:27:52;;;;;;;9.38;8.43;;;7.70;99.90;;;;;;5012748;28;20204;-80
2020/12/20 04:30:22;;;;;;;9.67;8.77;;;7.70;99.90;;;;;;5030204;28;20258;-80
2020/12/20 04:32:49;;;;;;;8.73;7.82;;;7.70;99.90;;;;;;4995880;28;20919;-80
2020/12/20 04:35:15;;;;;;;10.57;9.55;;;7.70;99.90;;;;;;5029307;28;20201;-79
2020/12/20 04:37:42;;;;;;;10.27;9.27;;;7.70;99.90;;;;;;5009322;28;20252;-79
2020/12/20 04:40:23;;;;;;;11.20;9.10;;;7.70;99.90;;;;;;5004738;28;20215;-79
2020/12/20 04:43:01;;;;;;;12.63;11.30;;;7.80;99.90;;;;;;5013240;28;20224;-80
2020/12/20 04:45:29;;;;;;;9.93;8.98;;;7.80;99.90;;;;;;5029054;28;20208;-81
2020/12/20 04:47:57;;;;;;;9.90;8.90;;;7.80;99.90;;;;;;5012430;28;20228;-79
2020/12/20 04:50:29;;;;;;;9.77;8.88;;;7.70;99.90;;;;;;4996630;28;20227;-79
2020/12/20 04:53:00;;;;;;;9.55;8.65;;;7.70;99.90;;;;;;5028907;28;20287;-79
2020/12/20 04:55:50;;;;;;;11.68;10.38;;;7.70;99.90;;;;;;5012779;28;20214;-80
2020/12/20 04:58:38;;;;;;;11.33;10.20;;;7.60;99.90;;;;;;4995649;28;20216;-79
2020/12/20 05:01:07;;;;;;;10.73;9.63;;;7.70;99.90;;;;;;5012743;28;20238;-79
2020/12/20 05:03:34;;;;;;;10.30;9.30;;;7.70;99.90;;;;;;5002384;28;20738;-79
2020/12/20 05:06:03;;;;;;;12.15;9.73;;;7.70;99.90;;;;;;4996117;28;20285;-79
2020/12/20 05:08:30;;;;;;;10.70;9.68;;;7.70;99.90;;;;;;5010607;28;20205;-79
2020/12/20 05:10:57;;;;;;;11.67;9.97;;;7.80;99.90;;;;;;5029938;28;20223;-80
2020/12/20 05:13:41;;;;;;;10.97;9.90;;;7.90;99.90;;;;;;5032121;28;20712;-80
2020/12/20 05:16:30;;;;;;;11.30;9.40;;;7.80;99.90;;;;;;5014803;28;20211;-79
2020/12/20 05:19:03;;;;;;;10.02;9.13;;;7.80;99.90;;;;;;5012672;28;20200;-80
2020/12/20 05:21:31;;;;;;;10.75;9.77;;;7.90;99.90;;;;;;5014132;28;20236;-79
2020/12/20 05:24:00;;;;;;;10.53;9.33;;;7.70;99.90;;;;;;5030426;28;20216;-80
2020/12/20 05:26:40;;;;;;;11.02;9.82;;;7.70;99.90;;;;;;5029355;28;20699;-80
2020/12/20 05:29:10;;;;;;;13.57;9.70;;;7.80;99.90;;;;;;5028990;28;20201;-81
2020/12/20 05:31:39;;;;;;;9.80;8.73;;;7.80;99.90;;;;;;5029064;28;20248;-80
2020/12/20 05:34:22;;;;;;;12.00;10.40;;;7.70;99.90;;;;;;5012698;28;20219;-80
2020/12/20 05:36:49;;;;;;;11.60;9.55;;;7.70;99.90;;;;;;5011331;28;20281;-80
2020/12/20 05:39:38;;;;;;;11.43;10.27;;;7.60;99.90;;;;;;5012545;28;20205;-80
2020/12/20 05:42:23;;;;;;;10.82;9.88;;;7.40;99.90;;;;;;5012414;28;20759;-80
2020/12/20 05:45:05;;;;;;;11.47;10.27;;;7.50;99.90;;;;;;5012537;28;20263;-80
2020/12/20 05:47:34;;;;;;;10.90;9.77;;;7.60;99.90;;;;;;5011000;28;21301;-80
2020/12/20 05:50:04;;;;;;;11.43;10.33;;;7.60;99.90;;;;;;5028234;28;20579;-80
2020/12/20 05:52:34;;;;;;;11.33;10.07;;;7.60;99.90;;;;;;5010753;28;20197;-80
2020/12/20 05:55:00;;;;;;;10.97;9.83;;;7.60;99.90;;;;;;5013212;28;20255;-80
2020/12/20 05:57:27;;;;;;;12.50;9.87;;;7.60;99.90;;;;;;5027177;28;20364;-79
2020/12/20 05:59:54;;;;;;;9.73;8.20;;;7.70;99.90;;;;;;5013106;28;20190;-79
2020/12/20 06:02:21;;;;;;;10.68;9.63;;;7.60;99.90;;;;;;5012186;28;20217;-79
2020/12/20 06:04:48;;;;;;;12.10;10.37;;;7.60;99.90;;;;;;5013083;28;20677;-80
2020/12/20 06:07:16;;;;;;;10.10;9.00;;;7.70;99.90;;;;;;5012864;28;20246;-79
2020/12/20 06:09:51;;;;;;;11.13;10.03;;;7.70;99.90;;;;;;5013350;28;20205;-80
2020/12/20 06:12:20;;;;;;;10.90;9.90;;;7.60;99.90;;;;;;5012057;28;20702;-79
2020/12/20 06:14:47;;;;;;;12.47;9.80;;;7.70;99.90;;;;;;5013231;28;20695;-80
2020/12/20 06:17:17;;;;;;;10.73;9.67;;;7.70;99.90;;;;;;5012861;28;20283;-79
2020/12/20 06:19:49;;;;;;;10.50;9.40;;;7.70;99.90;;;;;;5010165;28;20259;-79
2020/12/20 06:22:19;;;;;;;10.90;9.60;;;7.70;99.90;;;;;;5004635;28;20311;-80
2020/12/20 06:24:50;;;;;;;11.87;10.67;;;7.70;99.90;;;;;;5010146;28;20664;-79
2020/12/20 06:27:19;;;;;;;11.85;10.32;;;7.70;99.90;;;;;;4992516;28;20284;-78
2020/12/20 06:29:48;;;;;;;10.63;9.55;;;7.60;99.90;;;;;;5001815;28;20201;-80
2020/12/20 06:32:20;;;;;;;11.43;10.40;;;7.60;99.90;;;;;;5011551;28;20220;-80
2020/12/20 06:34:47;;;;;;;11.57;10.43;;;7.50;99.90;;;;;;5011945;28;20193;-79
2020/12/20 06:37:17;;;;;;;12.32;11.13;;;7.50;99.90;;;;;;5029121;28;20215;-79
2020/12/20 06:39:44;;;;;;;11.27;10.13;;;7.50;99.90;;;;;;5016229;28;20685;-79
2020/12/20 06:42:11;;;;;;;12.50;10.97;;;7.50;99.90;;;;;;5014630;28;20212;-79
2020/12/20 06:44:38;;;;;;;12.93;11.60;;;7.50;99.90;;;;;;5014387;28;20215;-79
2020/12/20 06:47:05;;;;;;;15.20;11.93;;;7.40;99.90;;;;;;4993173;28;20260;-79
2020/12/20 06:49:33;;;;;;;13.60;11.48;;;7.30;99.90;;;;;;5006959;28;20200;-80
2020/12/20 06:52:27;;;;;;;10.97;9.87;;;7.20;99.90;;;;;;5028639;28;20280;-80
2020/12/20 06:55:05;;;;;;;13.87;11.90;;;7.20;99.90;;;;;;4988428;28;20464;-79
2020/12/20 06:57:32;;;;;;;14.60;12.57;;;7.30;99.90;;;;;;5017105;28;20299;-79
2020/12/20 06:59:58;;;;;;;12.33;11.03;;;7.40;99.90;;;;;;5016876;28;20201;-80
2020/12/20 07:02:45;;;;;;;11.97;10.73;;;7.50;99.90;;;;;;5008490;28;20213;-80
2020/12/20 07:05:35;;;;;;;12.32;10.95;;;7.50;99.90;;;;;;5009550;28;20296;-81
2020/12/20 07:08:20;;;;;;;12.73;11.27;;;7.50;99.90;;;;;;4997921;28;20201;-79
2020/12/20 07:10:49;;;;;;;13.83;11.70;;;7.40;99.90;;;;;;5016065;28;20236;-77
2020/12/20 07:13:17;;;;;;;12.70;11.37;;;7.40;99.90;;;;;;5009484;28;20212;-79
2020/12/20 07:15:48;;;;;;;11.73;10.63;;;7.40;99.90;;;;;;4996368;28;20203;-79
2020/12/20 07:18:47;;;;;;;13.73;11.57;;;7.40;99.90;;;;;;5009668;28;20308;-80
2020/12/20 07:21:33;;;;;;;12.25;11.05;;;7.40;99.90;;;;;;5013192;28;20298;-80
2020/12/20 07:24:05;;;;;;;11.17;10.17;;;7.40;99.90;;;;;;5009667;28;20197;-80
2020/12/20 07:26:32;;;;;;;11.80;10.70;;;7.40;99.90;;;;;;5037185;28;20204;-83
2020/12/20 07:28:59;;;;;;;11.37;10.30;;;7.50;99.90;;;;;;5036267;28;20205;-81
2020/12/20 07:31:26;;;;;;;12.00;10.90;;;7.50;99.90;;;;;;5034623;28;20207;-81
2020/12/20 07:33:52;;;;;;;12.37;11.07;;;7.40;99.90;;;;;;5036209;28;20212;-78
2020/12/20 07:36:19;;;;;;;11.53;10.43;;;7.40;99.90;;;;;;5034439;28;20207;-81
2020/12/20 07:38:47;;;;;;;12.13;10.85;;;7.50;99.90;;;;;;5028880;28;20233;-80
2020/12/20 07:41:16;;;;;;;11.23;10.13;;;7.50;99.90;;;;;;5016467;28;20658;-80
2020/12/20 07:43:43;;;;;;;12.63;11.32;;;7.40;99.90;;;;;;5018132;28;20222;-80
2020/12/20 07:46:11;;;;;;;11.60;10.40;;;7.40;99.90;;;;;;5016838;28;20275;-79
2020/12/20 07:48:38;;;;;;;11.60;10.50;;;7.50;99.90;;;;;;5016610;28;20279;-79
2020/12/20 07:51:09;;;;;;;12.60;11.40;;;7.40;99.90;;;;;;5031174;28;20299;-80
2020/12/20 07:53:35;;;;;;;11.13;10.02;;;7.50;99.90;;;;;;5015615;28;20197;-81
2020/12/20 07:56:03;;;;;;;12.70;11.40;;;7.50;99.90;;;;;;5015882;28;20225;-79
2020/12/20 07:58:33;;;;;;;11.93;10.43;;;7.50;99.90;;;;;;5015089;28;20196;-80
2020/12/20 08:01:04;;;;;;;11.53;10.30;;;7.50;99.90;;;;;;4995213;28;20224;-79
2020/12/20 08:03:31;;;;;;;12.30;11.05;;;7.50;99.90;;;;;;5012142;28;20261;-79
2020/12/20 08:06:04;;;;;;;12.23;11.10;;;7.50;99.90;;;;;;5011376;28;20247;-76
2020/12/20 08:08:31;;;;;;;12.77;10.40;;;7.60;99.90;;;;;;5004865;28;20260;-76
2020/12/20 08:11:03;;;;;;;10.55;9.55;;;7.50;99.90;;;;;;5008128;28;20229;-77
2020/12/20 08:13:31;;;;;;;11.67;9.70;;;7.60;99.90;;;;;;4995402;28;20214;-76
2020/12/20 08:15:58;;;;;;;10.70;9.63;;;7.60;99.90;;;;;;4997517;28;20201;-76
2020/12/20 08:18:25;;;;;;;12.73;11.32;;;7.50;99.90;;;;;;5008994;28;20208;-78
2020/12/20 08:20:52;;;;;;;16.87;12.63;;;7.50;99.90;;;;;;4986830;28;20731;-76
2020/12/20 08:23:22;;;;;;;12.17;10.90;;;7.50;99.90;;;;;;5004738;28;20225;-82
2020/12/20 08:25:48;;;;;;;15.47;12.80;;;7.60;99.90;;;;;;5014213;28;20232;-80
2020/12/20 08:28:17;;;;;;;15.60;10.45;;;7.80;99.90;;;;;;5013118;28;20258;-80
2020/12/20 08:30:44;;;;;;;13.43;12.02;;;7.60;99.90;;;;;;5029081;28;20235;-81
2020/12/20 08:33:11;;;;;;;13.23;11.93;;;7.70;99.90;;;;;;5011949;28;20197;-81
2020/12/20 08:35:37;;;;;;;12.03;10.50;;;7.60;99.90;;;;;;5011764;28;20283;-80
2020/12/20 08:38:04;;;;;;;13.52;12.18;;;7.60;99.90;;;;;;5011050;28;20211;-81
2020/12/20 08:40:32;;;;;;;14.10;12.65;;;7.60;99.90;;;;;;5015847;28;20310;-79
2020/12/20 08:43:01;;;;;;;16.67;12.52;;;7.60;99.90;;;;;;4987609;28;20221;-79
2020/12/20 08:45:29;;;;;;;14.73;12.55;;;7.60;99.90;;;;;;5016261;28;20212;-81
2020/12/20 08:48:01;;;;;;;23.88;20.40;;;7.60;99.90;;;;;;5016284;28;20214;-81
2020/12/20 08:50:31;;;;;;;97.03;61.10;;;7.60;99.90;;;;;;5008064;28;20712;-80
2020/12/20 08:52:59;;;;;;;18.10;16.20;;;7.60;99.90;;;;;;4995503;28;20707;-81
2020/12/20 08:55:26;;;;;;;14.63;13.13;;;7.70;99.90;;;;;;4995726;28;20206;-81
2020/12/20 08:58:01;;;;;;;13.57;12.17;;;7.60;99.90;;;;;;4994853;28;20239;-80
2020/12/20 09:00:29;;;;;;;18.70;13.07;;;7.60;99.90;;;;;;4993685;28;20291;-80
2020/12/20 09:02:59;;;;;;;14.60;13.13;;;7.60;99.90;;;;;;4994195;28;20267;-80
2020/12/20 09:05:30;;;;;;;17.05;12.77;;;7.70;99.90;;;;;;4999928;28;20264;-80
2020/12/20 09:07:59;;;;;;;15.35;13.73;;;7.60;99.90;;;;;;5014628;28;20209;-81
2020/12/20 09:10:28;;;;;;;19.10;14.73;;;7.60;99.90;;;;;;5009214;28;20215;-81
2020/12/20 09:12:56;;;;;;;15.60;12.90;;;7.70;99.90;;;;;;5004796;28;20693;-81
2020/12/20 09:15:25;;;;;;;16.77;15.07;;;7.60;99.90;;;;;;4994759;28;20291;-80
2020/12/20 09:17:53;;;;;;;15.90;13.27;;;7.60;99.90;;;;;;4992562;28;20265;-82
2020/12/20 09:20:22;;;;;;;15.38;13.35;;;7.60;99.90;;;;;;4999053;28;20255;-80
2020/12/20 09:22:53;;;;;;;15.50;13.67;;;7.60;99.90;;;;;;5002634;28;20200;-80
2020/12/20 09:25:31;;;;;;;17.27;13.93;;;7.70;99.90;;;;;;5008519;28;20228;-82
2020/12/20 09:28:00;;;;;;;16.13;13.40;;;7.80;99.90;;;;;;5012537;28;20185;-81
2020/12/20 09:30:38;;;;;;;14.60;13.18;;;7.90;99.90;;;;;;4998672;28;20203;-81
2020/12/20 09:33:18;;;;;;;16.38;13.25;;;7.90;99.90;;;;;;5002309;28;20185;-81
2020/12/20 09:36:00;;;;;;;17.47;14.03;;;7.80;99.90;;;;;;5006775;28;20279;-81
2020/12/20 09:38:29;;;;;;;17.55;14.38;;;7.80;99.90;;;;;;5013708;28;20201;-80
2020/12/20 09:41:02;;;;;;;15.37;13.77;;;7.90;99.90;;;;;;5018827;28;20247;-81
2020/12/20 09:43:29;;;;;;;14.40;12.93;;;7.90;99.90;;;;;;5019604;28;20221;-81
2020/12/20 09:45:57;;;;;;;15.77;13.47;;;8.00;99.90;;;;;;5017225;28;20272;-81
2020/12/20 09:48:24;;;;;;;13.70;12.32;;;8.20;99.90;;;;;;4998642;28;20685;-81
2020/12/20 09:50:51;;;;;;;19.05;14.95;;;8.00;99.90;;;;;;4997848;28;20702;-83
2020/12/20 09:53:18;;;;;;;15.17;13.50;;;8.00;99.90;;;;;;5012128;28;20265;-81
2020/12/20 09:55:47;;;;;;;14.53;13.13;;;8.00;99.90;;;;;;5016508;28;20208;-81
2020/12/20 09:58:15;;;;;;;17.70;13.87;;;8.10;99.90;;;;;;5016292;28;20295;-81
2020/12/20 10:00:43;;;;;;;16.70;13.77;;;8.10;99.90;;;;;;5020453;28;20209;-82
2020/12/20 10:03:11;;;;;;;13.95;12.57;;;8.10;99.90;;;;;;5017989;28;20289;-82
2020/12/20 10:05:42;;;;;;;13.67;12.30;;;8.10;99.90;;;;;;5018122;28;21620;-81
2020/12/20 10:08:09;;;;;;;15.32;13.10;;;8.30;99.90;;;;;;5018563;28;20260;-82
2020/12/20 10:10:36;;;;;;;16.10;12.55;;;8.10;99.90;;;;;;5017268;28;20216;-81
2020/12/20 10:13:03;;;;;;;15.80;13.20;;;8.00;99.90;;;;;;5017964;28;20199;-82
2020/12/20 10:15:30;;;;;;;17.65;12.88;;;7.80;99.90;;;;;;5000145;28;20673;-79
2020/12/20 10:18:01;;;;;;;15.57;13.27;;;7.90;99.90;;;;;;5015874;28;20294;-80
2020/12/20 10:20:32;;;;;;;17.47;15.00;;;7.60;99.90;;;;;;5008042;28;20988;-80
2020/12/20 10:23:00;;;;;;;15.30;13.70;;;7.80;99.90;;;;;;5006212;28;20556;-80
2020/12/20 10:25:27;;;;;;;16.15;14.52;;;7.70;99.90;;;;;;5019566;28;20311;-80
2020/12/20 10:27:55;;;;;;;18.87;15.80;;;7.80;99.90;;;;;;5019152;28;20519;-81
2020/12/20 10:30:22;;;;;;;16.33;13.60;;;7.70;99.90;;;;;;5021371;28;20254;-80
2020/12/20 10:32:49;;;;;;;16.17;14.57;;;7.70;99.90;;;;;;5016143;28;20193;-83
2020/12/20 10:35:16;;;;;;;18.90;14.73;;;7.50;99.90;;;;;;5008991;28;20216;-81
2020/12/20 10:37:43;;;;;;;17.17;15.32;;;7.60;99.90;;;;;;5005924;28;20200;-80
2020/12/20 10:40:11;;;;;;;16.95;14.95;;;7.40;99.90;;;;;;5015369;28;20193;-78
2020/12/20 10:42:37;;;;;;;19.02;15.40;;;7.50;99.90;;;;;;5013375;28;20211;-77
2020/12/20 10:45:04;;;;;;;16.23;14.37;;;7.50;99.90;;;;;;5006373;28;20240;-77
2020/12/20 10:47:31;;;;;;;16.63;14.83;;;7.50;99.90;;;;;;5011952;28;20546;-76
2020/12/20 10:49:57;;;;;;;17.03;14.90;;;7.50;99.90;;;;;;4997770;28;20192;-77
2020/12/20 10:52:24;;;;;;;14.88;13.38;;;7.60;99.90;;;;;;5012497;28;20282;-77
2020/12/20 10:54:50;;;;;;;17.25;14.95;;;7.60;99.90;;;;;;5006723;28;20204;-75
2020/12/20 10:57:17;;;;;;;15.97;14.37;;;7.70;99.90;;;;;;4995844;28;20208;-76
2020/12/20 10:59:44;;;;;;;16.13;14.43;;;7.80;99.90;;;;;;5010516;28;20629;-76
2020/12/20 11:02:10;;;;;;;15.97;13.17;;;7.70;99.90;;;;;;5006847;28;20216;-76
2020/12/20 11:04:37;;;;;;;17.50;14.40;;;7.70;99.90;;;;;;5016688;28;20216;-76
2020/12/20 11:07:04;;;;;;;16.75;14.95;;;7.60;99.90;;;;;;5005666;28;20639;-78
2020/12/20 11:09:30;;;;;;;16.47;14.33;;;7.60;99.90;;;;;;5008145;28;20196;-76
2020/12/20 11:11:57;;;;;;;15.53;13.93;;;7.60;99.90;;;;;;5005564;28;20228;-76
2020/12/20 11:14:24;;;;;;;16.15;14.45;;;7.60;99.90;;;;;;5005619;28;20197;-76
2020/12/20 11:16:51;;;;;;;19.47;16.17;;;7.60;99.90;;;;;;5010433;28;20305;-76
2020/12/20 11:19:19;;;;;;;16.00;14.30;;;7.70;99.90;;;;;;5000357;28;20231;-77
2020/12/20 11:21:48;;;;;;;16.80;14.73;;;7.80;99.90;;;;;;5004504;28;20216;-81
2020/12/20 11:24:16;;;;;;;17.30;15.10;;;7.80;99.90;;;;;;5016745;28;20208;-79
2020/12/20 11:26:43;;;;;;;16.27;13.67;;;7.90;99.90;;;;;;4995659;28;20223;-80
2020/12/20 11:29:10;;;;;;;15.73;13.90;;;7.80;99.90;;;;;;5002269;28;20288;-78
2020/12/20 11:31:37;;;;;;;17.53;14.03;;;7.80;99.90;;;;;;5007692;28;20219;-78
2020/12/20 11:34:06;;;;;;;16.20;14.50;;;8.00;99.90;;;;;;5015865;28;20197;-80
2020/12/20 11:36:32;;;;;;;17.17;14.57;;;8.00;99.90;;;;;;5015737;28;20205;-78
2020/12/20 11:39:00;;;;;;;17.92;16.13;;;8.20;99.90;;;;;;5041699;28;20220;-83
2020/12/20 11:41:27;;;;;;;16.67;14.97;;;8.50;99.90;;;;;;5028917;28;20201;-86
2020/12/20 11:43:55;;;;;;;15.82;13.70;;;8.60;99.90;;;;;;5034948;28;20415;-81
2020/12/20 11:46:22;;;;;;;15.40;12.80;;;8.90;99.90;;;;;;5026109;28;20280;-79
2020/12/20 11:48:49;;;;;;;11.68;10.57;;;9.40;99.90;;;;;;5030555;28;20269;-81
2020/12/20 11:51:17;;;;;;;12.18;10.98;;;10.00;99.90;;;;;;5029770;28;20211;-79
2020/12/20 11:53:44;;;;;;;13.70;12.20;;;10.50;99.90;;;;;;5009378;28;20224;-78
2020/12/20 11:56:11;;;;;;;14.52;13.13;;;10.90;99.90;;;;;;5019115;28;20226;-78
2020/12/20 11:58:40;;;;;;;12.00;10.70;;;10.80;99.90;;;;;;4990074;28;20652;-78
2020/12/20 12:01:07;;;;;;;11.50;10.30;;;10.70;99.90;;;;;;4995608;28;20474;-78
2020/12/20 12:03:33;;;;;;;11.75;10.50;;;10.60;99.90;;;;;;5006812;28;20223;-77
2020/12/20 12:06:01;;;;;;;14.07;11.77;;;10.40;99.90;;;;;;5004309;28;21580;-77
2020/12/20 12:08:28;;;;;;;16.10;12.63;;;10.30;99.90;;;;;;4998075;28;20203;-77
2020/12/20 12:10:55;;;;;;;11.83;10.63;;;10.10;99.90;;;;;;4998296;28;20731;-78
2020/12/20 12:13:23;;;;;;;10.73;9.65;;;10.40;99.90;;;;;;5009732;28;20240;-78
2020/12/20 12:15:49;;;;;;;11.77;10.57;;;10.60;99.90;;;;;;4995182;28;20203;-77
2020/12/20 12:18:16;;;;;;;10.20;9.17;;;10.90;99.90;;;;;;4991100;28;20212;-78
2020/12/20 12:20:42;;;;;;;12.90;10.27;;;10.70;99.90;;;;;;4998632;28;20222;-77
2020/12/20 12:23:09;;;;;;;10.75;9.65;;;10.50;99.90;;;;;;5008826;28;20215;-77
2020/12/20 12:25:36;;;;;;;11.85;10.68;;;10.10;99.90;;;;;;5010900;28;20195;-79
2020/12/20 12:28:02;;;;;;;12.70;11.40;;;9.80;99.90;;;;;;5007890;28;20212;-79
2020/12/20 12:30:29;;;;;;;12.20;11.00;;;9.50;99.90;;;;;;5010459;28;20224;-79
2020/12/20 12:32:55;;;;;;;12.32;11.07;;;9.30;99.90;;;;;;5006211;28;20212;-79
2020/12/20 12:35:23;;;;;;;13.00;11.70;;;9.40;99.90;;;;;;5011411;28;20207;-79
2020/12/20 12:37:51;;;;;;;12.90;10.85;;;9.60;99.90;;;;;;4999846;28;20197;-79
2020/12/20 12:40:18;;;;;;;11.33;9.43;;;9.60;99.90;;;;;;4994819;28;20210;-77
2020/12/20 12:42:45;;;;;;;16.50;11.73;;;9.70;99.90;;;;;;5001900;28;20205;-80
2020/12/20 12:45:14;;;;;;;13.60;11.30;;;9.70;99.90;;;;;;5004653;28;20221;-79
2020/12/20 12:47:41;;;;;;;11.02;9.93;;;9.60;99.90;;;;;;5003505;28;20207;-79
2020/12/20 12:50:07;;;;;;;13.40;10.95;;;9.50;99.90;;;;;;5012258;28;20195;-80
2020/12/20 12:52:34;;;;;;;10.98;9.52;;;9.30;99.90;;;;;;5001045;28;20200;-79
2020/12/20 12:55:00;;;;;;;13.90;12.23;;;9.00;99.90;;;;;;4997032;28;20204;-78
2020/12/20 12:57:28;;;;;;;14.97;13.47;;;8.80;99.90;;;;;;4990691;28;20207;-77
2020/12/20 12:59:55;;;;;;;13.27;12.07;;;8.70;99.90;;;;;;4989920;28;20583;-77